Time;durP1;ratioP1;P1;durP2;ratioP2;P2;SDS_P1;SDS_P2;PMS_P1;PMS_P2;Temp;Humidity;BMP_temperature;BMP_pressure;BME280_temperature;BME280_humidity;BME280_pressure;Samples;Min_cycle;Max_cycle;Signal;HPM_P1;HPM_P2
2023/10/20 00:00:44;;;;;;;24.10;14.75;;;7.10;99.90;;;;;;5073919;28;20049;-20
2023/10/20 00:03:10;;;;;;;24.02;15.80;;;7.00;99.90;;;;;;5073286;28;20092;-20
2023/10/20 00:05:37;;;;;;;23.30;14.73;;;7.00;99.90;;;;;;5073468;28;20147;-20
2023/10/20 00:08:03;;;;;;;24.90;16.17;;;6.90;99.90;;;;;;5073386;28;20073;-20
2023/10/20 00:10:34;;;;;;;25.35;15.02;;;7.10;99.90;;;;;;5073879;28;20091;-20
2023/10/20 00:13:01;;;;;;;24.25;15.40;;;6.90;99.90;;;;;;5073235;28;20052;-20
2023/10/20 00:15:28;;;;;;;21.98;15.02;;;6.90;99.90;;;;;;5072173;28;20044;-20
2023/10/20 00:17:53;;;;;;;26.05;15.52;;;6.90;99.90;;;;;;5073861;28;20463;-20
2023/10/20 00:20:19;;;;;;;24.67;15.43;;;6.90;99.90;;;;;;5072355;28;20093;-20
2023/10/20 00:22:45;;;;;;;24.02;14.90;;;7.00;99.90;;;;;;5073152;28;20505;-20
2023/10/20 00:25:11;;;;;;;21.50;14.05;;;6.90;99.90;;;;;;5072132;28;20048;-20
2023/10/20 00:27:38;;;;;;;27.15;15.73;;;7.20;99.90;;;;;;5076657;28;20048;-20
2023/10/20 00:30:07;;;;;;;21.48;13.70;;;6.90;99.90;;;;;;5076999;28;20084;-20
2023/10/20 00:32:34;;;;;;;25.20;15.60;;;6.90;99.90;;;;;;5077744;28;20151;-20
2023/10/20 00:35:03;;;;;;;23.50;14.90;;;7.00;99.90;;;;;;5076886;28;20517;-20
2023/10/20 00:37:31;;;;;;;28.58;15.60;;;7.00;99.90;;;;;;5077143;28;20041;-20
2023/10/20 00:39:57;;;;;;;27.27;15.27;;;7.00;99.90;;;;;;5076817;28;20041;-21
2023/10/20 00:42:23;;;;;;;26.48;16.13;;;6.90;99.90;;;;;;5076676;28;20036;-21
2023/10/20 00:44:49;;;;;;;23.55;15.38;;;7.30;99.90;;;;;;5076986;28;20051;-21
2023/10/20 00:47:16;;;;;;;26.58;15.10;;;6.90;99.90;;;;;;5076656;28;20055;-21
2023/10/20 00:49:45;;;;;;;23.77;14.80;;;6.90;99.90;;;;;;5076649;28;20045;-21
2023/10/20 00:52:13;;;;;;;26.27;14.52;;;7.00;99.90;;;;;;5076607;28;20079;-21
2023/10/20 00:54:40;;;;;;;26.30;14.13;;;6.90;99.90;;;;;;5076797;28;20052;-21
2023/10/20 00:57:06;;;;;;;24.35;14.18;;;7.30;99.90;;;;;;5076748;28;20064;-21
2023/10/20 00:59:32;;;;;;;24.70;14.68;;;6.90;99.90;;;;;;5076506;28;20040;-21
2023/10/20 01:01:58;;;;;;;25.80;13.57;;;7.00;99.90;;;;;;5075925;28;20092;-21
2023/10/20 01:04:24;;;;;;;26.63;14.07;;;7.00;99.90;;;;;;5076392;28;20052;-20
2023/10/20 01:06:51;;;;;;;24.55;13.88;;;7.10;99.90;;;;;;5076352;28;20461;-21
2023/10/20 01:09:24;;;;;;;25.33;14.77;;;7.30;99.90;;;;;;5076283;28;20095;-21
2023/10/20 01:11:50;;;;;;;22.08;13.68;;;7.20;99.90;;;;;;5076232;28;20123;-21
2023/10/20 01:14:15;;;;;;;24.10;15.13;;;7.30;99.90;;;;;;5076706;28;20123;-21
2023/10/20 01:16:41;;;;;;;26.70;15.52;;;7.10;99.90;;;;;;5076096;28;20062;-21
2023/10/20 01:19:07;;;;;;;25.00;14.68;;;7.20;99.90;;;;;;5076173;28;20170;-21
2023/10/20 01:21:32;;;;;;;26.70;15.18;;;7.30;99.90;;;;;;5076562;28;20481;-21
2023/10/20 01:24:01;;;;;;;30.70;16.05;;;7.00;99.90;;;;;;5075687;28;20053;-21
2023/10/20 01:26:29;;;;;;;28.20;15.20;;;7.30;99.90;;;;;;5076539;28;20442;-21
2023/10/20 01:28:55;;;;;;;33.15;16.50;;;7.00;99.90;;;;;;5075956;28;20051;-21
2023/10/20 01:31:22;;;;;;;38.42;18.80;;;6.90;99.90;;;;;;5075842;28;20044;-21
2023/10/20 01:33:48;;;;;;;33.85;17.77;;;7.00;99.90;;;;;;5075671;28;20044;-21
2023/10/20 01:36:15;;;;;;;39.05;19.70;;;7.30;99.90;;;;;;5075819;28;20135;-21
2023/10/20 01:38:41;;;;;;;34.80;17.38;;;7.30;99.90;;;;;;5076320;28;20494;-21
2023/10/20 01:41:07;;;;;;;43.30;19.73;;;7.00;99.90;;;;;;5075435;28;20463;-21
2023/10/20 01:43:33;;;;;;;41.38;19.98;;;7.10;99.90;;;;;;5076247;28;20105;-21
2023/10/20 01:46:03;;;;;;;41.28;18.63;;;6.90;99.90;;;;;;5075216;28;20382;-21
2023/10/20 01:48:30;;;;;;;34.28;18.95;;;7.30;99.90;;;;;;5074391;28;20056;-21
2023/10/20 01:50:56;;;;;;;36.03;18.67;;;7.20;99.90;;;;;;5075494;28;20393;-21
2023/10/20 01:53:22;;;;;;;38.25;19.42;;;7.40;99.90;;;;;;5075440;28;20074;-21
2023/10/20 01:55:52;;;;;;;38.08;18.25;;;7.40;99.90;;;;;;5074436;28;20052;-21
2023/10/20 01:58:21;;;;;;;38.15;20.42;;;7.30;99.90;;;;;;5075320;28;20048;-21
2023/10/20 02:00:50;;;;;;;44.13;20.33;;;7.30;99.90;;;;;;5075224;28;20078;-21
2023/10/20 02:03:17;;;;;;;42.08;20.85;;;7.20;99.90;;;;;;5075274;28;20054;-21
2023/10/20 02:05:43;;;;;;;41.30;21.33;;;7.40;99.90;;;;;;5075248;28;20052;-21
2023/10/20 02:08:09;;;;;;;43.90;21.90;;;7.00;99.90;;;;;;5075187;28;20098;-21
2023/10/20 02:10:35;;;;;;;48.55;22.90;;;7.10;99.90;;;;;;5075091;28;20536;-21
2023/10/20 02:13:02;;;;;;;49.78;23.08;;;7.40;99.90;;;;;;5075039;28;20040;-21
2023/10/20 02:15:29;;;;;;;44.88;22.15;;;7.10;99.90;;;;;;5075039;28;20056;-21
2023/10/20 02:17:58;;;;;;;53.58;23.52;;;7.40;99.90;;;;;;5073819;28;20075;-21
2023/10/20 02:20:25;;;;;;;51.60;22.90;;;7.10;99.90;;;;;;5074946;28;20127;-21
2023/10/20 02:22:55;;;;;;;49.65;22.88;;;7.00;99.90;;;;;;5074772;28;20117;-21
2023/10/20 02:25:22;;;;;;;52.38;23.52;;;7.40;99.90;;;;;;5074784;28;20052;-21
2023/10/20 02:27:48;;;;;;;50.80;23.23;;;7.00;99.90;;;;;;5074749;28;20056;-21
2023/10/20 02:30:15;;;;;;;48.72;22.83;;;7.30;99.90;;;;;;5074752;28;20105;-21
2023/10/20 02:32:41;;;;;;;47.53;23.25;;;7.20;99.90;;;;;;5073982;28;20040;-21
2023/10/20 02:35:11;;;;;;;48.92;23.95;;;7.00;99.90;;;;;;5074897;28;20052;-21
2023/10/20 02:37:37;;;;;;;57.28;24.63;;;7.00;99.90;;;;;;5074593;28;20179;-21
2023/10/20 02:40:06;;;;;;;52.08;23.85;;;7.10;99.90;;;;;;5075320;28;20076;-21
2023/10/20 02:42:32;;;;;;;52.25;26.27;;;7.00;99.90;;;;;;5074433;28;20048;-21
2023/10/20 02:44:58;;;;;;;54.95;25.63;;;7.20;99.90;;;;;;5074080;28;20529;-21
2023/10/20 02:47:24;;;;;;;52.80;24.55;;;7.10;99.90;;;;;;5074402;28;20048;-21
2023/10/20 02:49:55;;;;;;;53.58;26.63;;;7.00;99.90;;;;;;5074024;28;20048;-21
2023/10/20 02:52:22;;;;;;;55.05;25.55;;;7.40;99.90;;;;;;5074856;28;20467;-21
2023/10/20 02:54:53;;;;;;;58.33;27.35;;;7.30;99.90;;;;;;5057410;28;20048;-21
2023/10/20 02:57:20;;;;;;;61.65;27.25;;;7.30;99.90;;;;;;5074483;28;20053;-21
2023/10/20 02:59:50;;;;;;;59.17;27.05;;;7.10;99.90;;;;;;5074181;28;20070;-21
2023/10/20 03:02:18;;;;;;;57.35;27.42;;;6.90;99.90;;;;;;5073941;28;20036;-21
2023/10/20 03:04:43;;;;;;;60.28;27.77;;;7.30;99.90;;;;;;5073929;28;20403;-21
2023/10/20 03:07:09;;;;;;;62.45;27.05;;;6.80;99.90;;;;;;5074012;28;20057;-21
2023/10/20 03:09:38;;;;;;;69.15;29.45;;;7.30;99.90;;;;;;5072540;28;20048;-22
2023/10/20 03:12:04;;;;;;;63.38;28.52;;;7.10;99.90;;;;;;5073970;28;20080;-21
2023/10/20 03:14:31;;;;;;;66.15;28.92;;;6.90;99.90;;;;;;5073970;28;20087;-22
2023/10/20 03:16:57;;;;;;;60.38;27.83;;;7.10;99.90;;;;;;5073641;28;20513;-21
2023/10/20 03:19:23;;;;;;;59.90;28.50;;;7.00;99.90;;;;;;5073456;28;20098;-21
2023/10/20 03:21:49;;;;;;;61.97;27.88;;;7.20;99.90;;;;;;5073766;28;20044;-21
2023/10/20 03:24:14;;;;;;;56.63;26.48;;;7.20;99.90;;;;;;5073827;28;20123;-21
2023/10/20 03:26:42;;;;;;;69.30;29.25;;;6.90;99.90;;;;;;5056135;28;20135;-21
2023/10/20 03:29:09;;;;;;;64.88;27.77;;;7.20;99.90;;;;;;5074041;28;20056;-21
2023/10/20 03:31:35;;;;;;;59.65;25.73;;;6.90;99.90;;;;;;5073300;28;20600;-21
2023/10/20 03:34:01;;;;;;;65.10;27.27;;;7.20;99.90;;;;;;5073580;28;20127;-21
2023/10/20 03:36:27;;;;;;;58.63;27.00;;;7.00;99.90;;;;;;5073936;28;20097;-21
2023/10/20 03:38:53;;;;;;;63.88;28.85;;;6.90;99.90;;;;;;5073684;28;20083;-21
2023/10/20 03:41:22;;;;;;;59.25;26.02;;;7.10;99.90;;;;;;5073613;28;20097;-21
2023/10/20 03:43:50;;;;;;;56.38;25.65;;;6.80;99.90;;;;;;5073371;28;20607;-21
2023/10/20 03:46:18;;;;;;;57.45;27.05;;;6.80;99.90;;;;;;5073595;28;20084;-22
2023/10/20 03:48:45;;;;;;;55.47;26.25;;;6.70;99.90;;;;;;5074193;28;20181;-21
2023/10/20 03:51:12;;;;;;;55.17;25.65;;;6.80;99.90;;;;;;5073551;28;20032;-21
2023/10/20 03:53:50;;;;;;;57.28;25.83;;;6.90;99.90;;;;;;5073520;28;20494;-21
2023/10/20 03:56:18;;;;;;;52.38;26.85;;;6.90;99.90;;;;;;5073520;28;20406;-22
2023/10/20 03:58:46;;;;;;;54.90;24.85;;;7.20;99.90;;;;;;5073475;28;20087;-22
2023/10/20 04:01:12;;;;;;;51.85;23.42;;;6.70;99.90;;;;;;5075530;28;20105;-22
2023/10/20 04:03:43;;;;;;;50.15;25.48;;;6.90;99.90;;;;;;5076015;28;20044;-22
2023/10/20 04:06:09;;;;;;;46.80;24.38;;;7.00;99.90;;;;;;5077503;28;20052;-22
2023/10/20 04:08:34;;;;;;;47.30;24.17;;;7.00;99.90;;;;;;5076897;28;20049;-22
2023/10/20 04:11:00;;;;;;;43.05;23.50;;;7.10;99.90;;;;;;5077688;28;20093;-22
2023/10/20 04:13:29;;;;;;;38.90;21.52;;;6.90;99.90;;;;;;5077940;28;20045;-22
2023/10/20 04:15:55;;;;;;;39.33;22.17;;;6.80;99.90;;;;;;5077312;28;20512;-22
2023/10/20 04:18:22;;;;;;;37.83;20.55;;;6.80;99.90;;;;;;5077249;28;20123;-21
2023/10/20 04:20:48;;;;;;;33.25;20.23;;;7.10;99.90;;;;;;5077833;28;20099;-22
2023/10/20 04:23:17;;;;;;;30.20;18.38;;;7.20;99.90;;;;;;5077136;28;20098;-22
2023/10/20 04:25:54;;;;;;;33.80;19.85;;;7.10;99.90;;;;;;5077386;28;20106;-22
2023/10/20 04:28:32;;;;;;;33.28;19.65;;;6.90;99.90;;;;;;5076799;28;20491;-22
2023/10/20 05:07:52;;;;;;;19.63;13.23;;;6.90;99.90;;;;;;5076361;28;20060;-22
2023/10/20 05:10:19;;;;;;;19.42;13.38;;;7.00;99.90;;;;;;5075620;28;20052;-22
2023/10/20 05:12:46;;;;;;;19.08;12.52;;;7.10;99.90;;;;;;5076479;28;20153;-22
2023/10/20 05:15:13;;;;;;;17.08;11.73;;;7.00;99.90;;;;;;5076247;28;20052;-22
2023/10/20 05:17:39;;;;;;;18.52;11.07;;;7.00;99.90;;;;;;5076142;28;20059;-22
2023/10/20 05:20:06;;;;;;;21.27;11.90;;;7.00;99.90;;;;;;5076122;28;20046;-22
2023/10/20 05:22:33;;;;;;;16.00;11.57;;;7.10;99.90;;;;;;5075679;28;20044;-22
2023/10/20 05:24:59;;;;;;;18.13;10.60;;;7.00;99.90;;;;;;5074772;28;20080;-22
2023/10/20 05:27:25;;;;;;;16.02;11.48;;;7.10;99.90;;;;;;5076787;28;20087;-22
2023/10/20 05:29:52;;;;;;;16.17;10.43;;;7.10;99.90;;;;;;5058288;28;20475;-22
2023/10/20 05:32:17;;;;;;;14.95;9.07;;;7.10;99.90;;;;;;5075895;28;20072;-22
2023/10/20 05:34:44;;;;;;;15.43;8.90;;;7.10;99.90;;;;;;5075815;28;20474;-22
2023/10/20 05:37:10;;;;;;;13.07;8.77;;;7.10;99.90;;;;;;5075769;28;20045;-22
2023/10/20 05:39:37;;;;;;;12.05;7.85;;;6.90;99.90;;;;;;5076552;28;20131;-22
2023/10/20 05:42:04;;;;;;;13.52;8.20;;;7.00;99.90;;;;;;5075642;28;20084;-22
2023/10/20 05:44:34;;;;;;;12.65;8.00;;;7.10;99.90;;;;;;5075898;28;20055;-22
2023/10/20 05:46:59;;;;;;;15.50;8.18;;;7.10;99.90;;;;;;5075586;28;20053;-22
2023/10/20 05:49:28;;;;;;;10.82;7.03;;;7.10;99.90;;;;;;5075803;28;20182;-22
2023/10/20 05:51:54;;;;;;;11.80;7.07;;;7.10;99.90;;;;;;5075504;28;20076;-22
2023/10/20 05:54:20;;;;;;;10.50;7.70;;;7.00;99.90;;;;;;5075440;28;20094;-22
2023/10/20 05:56:46;;;;;;;10.85;6.80;;;7.00;99.90;;;;;;5075915;28;20082;-22
2023/10/20 05:59:11;;;;;;;10.32;6.10;;;7.10;99.90;;;;;;5075392;28;20044;-22
2023/10/20 06:01:37;;;;;;;10.27;6.43;;;7.10;99.90;;;;;;5076103;28;20041;-22
2023/10/20 06:04:03;;;;;;;9.32;5.78;;;7.10;99.90;;;;;;5075332;28;20418;-21
2023/10/20 06:06:32;;;;;;;8.95;5.60;;;7.00;99.90;;;;;;5075243;28;20055;-22
2023/10/20 06:08:58;;;;;;;11.73;5.90;;;7.10;99.90;;;;;;5075194;28;20433;-22
2023/10/20 06:11:24;;;;;;;10.52;5.15;;;7.10;99.90;;;;;;5075133;28;20124;-22
2023/10/20 06:13:49;;;;;;;7.60;4.85;;;7.10;99.90;;;;;;5075067;28;20527;-22
2023/10/20 06:16:15;;;;;;;10.13;5.93;;;7.00;99.90;;;;;;5074710;28;20075;-22
2023/10/20 06:18:42;;;;;;;8.57;5.32;;;7.10;99.90;;;;;;5074928;28;20044;-22
2023/10/20 06:21:16;;;;;;;6.07;4.07;;;7.10;99.90;;;;;;5074841;28;20098;-22
2023/10/20 06:23:43;;;;;;;5.90;3.67;;;7.10;99.90;;;;;;5074182;28;20048;-22
2023/10/20 06:26:09;;;;;;;6.43;3.35;;;7.00;99.90;;;;;;5074587;28;20502;-22
2023/10/20 06:28:35;;;;;;;7.05;3.85;;;7.00;99.90;;;;;;5074804;28;20123;-22
2023/10/20 06:31:14;;;;;;;5.57;3.63;;;7.00;99.90;;;;;;5074676;28;20473;-22
2023/10/20 06:33:43;;;;;;;5.45;2.75;;;7.00;99.90;;;;;;5074674;28;20088;-22
2023/10/20 06:36:10;;;;;;;6.93;4.10;;;7.00;99.90;;;;;;5073605;28;20053;-23
2023/10/20 06:38:44;;;;;;;6.63;3.75;;;7.00;99.90;;;;;;5073303;28;20091;-23
2023/10/20 06:41:13;;;;;;;5.50;3.60;;;7.00;99.90;;;;;;5075328;28;20447;-22
2023/10/20 06:43:40;;;;;;;5.72;3.60;;;6.90;99.90;;;;;;5074457;28;20056;-23
2023/10/20 06:46:05;;;;;;;6.50;3.63;;;6.90;99.90;;;;;;5074364;28;20123;-23
2023/10/20 06:48:31;;;;;;;6.28;3.53;;;6.90;99.90;;;;;;5073339;28;20132;-23
2023/10/20 06:50:58;;;;;;;5.28;3.63;;;6.90;99.90;;;;;;5073160;28;20044;-23
2023/10/20 06:53:25;;;;;;;6.45;3.35;;;6.90;99.90;;;;;;5074301;28;20044;-22
2023/10/20 06:55:51;;;;;;;5.85;3.70;;;6.90;99.90;;;;;;5074504;28;20044;-23
2023/10/20 06:58:17;;;;;;;6.03;3.60;;;6.90;99.90;;;;;;5074189;28;20524;-22
2023/10/20 07:00:47;;;;;;;5.10;3.55;;;6.90;99.90;;;;;;5074172;28;20044;-23
2023/10/20 07:03:16;;;;;;;5.13;3.88;;;6.90;99.90;;;;;;5074000;28;20052;-23
2023/10/20 07:05:42;;;;;;;6.38;4.15;;;6.90;99.90;;;;;;5074093;28;20186;-23
2023/10/20 07:08:08;;;;;;;7.47;3.65;;;6.80;99.90;;;;;;5074048;28;20048;-23
2023/10/20 07:10:37;;;;;;;5.57;3.40;;;6.80;99.90;;;;;;5073392;28;20048;-23
2023/10/20 07:13:06;;;;;;;6.78;3.83;;;6.80;99.90;;;;;;5073000;28;20106;-23
2023/10/20 07:15:36;;;;;;;6.43;3.58;;;6.70;99.90;;;;;;5073973;28;20135;-23
2023/10/20 07:18:05;;;;;;;5.15;3.20;;;6.80;99.90;;;;;;5056017;28;20048;-23
2023/10/20 07:20:33;;;;;;;5.95;4.00;;;6.80;99.90;;;;;;5073862;28;20080;-22
2023/10/20 07:22:59;;;;;;;4.55;3.38;;;6.80;99.90;;;;;;5073785;28;20084;-23
2023/10/20 07:25:26;;;;;;;4.07;2.95;;;6.80;99.90;;;;;;5074633;28;20110;-23
2023/10/20 07:27:53;;;;;;;7.28;3.33;;;6.80;99.90;;;;;;5073783;28;20502;-23
2023/10/20 07:30:19;;;;;;;10.18;3.08;;;6.80;99.90;;;;;;5072500;28;20052;-23
2023/10/20 07:32:46;;;;;;;6.15;3.03;;;6.70;99.90;;;;;;5074568;28;20395;-23
2023/10/20 07:35:12;;;;;;;4.63;2.80;;;6.70;99.90;;;;;;5073751;28;20121;-23
2023/10/20 07:37:39;;;;;;;5.53;2.53;;;6.70;99.90;;;;;;5073661;28;20051;-23
2023/10/20 07:40:06;;;;;;;6.53;2.90;;;6.70;99.90;;;;;;5073669;28;20109;-23
2023/10/20 07:42:32;;;;;;;5.65;2.83;;;6.70;99.90;;;;;;5073894;28;20079;-23
2023/10/20 07:44:59;;;;;;;4.25;2.65;;;6.60;99.90;;;;;;5073606;28;20552;-23
2023/10/20 07:47:25;;;;;;;3.97;2.70;;;6.70;99.90;;;;;;5072588;28;20494;-23
2023/10/20 07:49:51;;;;;;;5.00;3.20;;;6.60;99.90;;;;;;5074099;28;20084;-23
2023/10/20 07:52:17;;;;;;;3.47;2.50;;;6.60;99.90;;;;;;5073555;28;20134;-23
2023/10/20 07:54:43;;;;;;;5.32;3.30;;;6.50;99.90;;;;;;5073561;28;20097;-23
2023/10/20 07:57:10;;;;;;;4.97;3.50;;;6.50;99.90;;;;;;5073550;28;20512;-23
2023/10/20 07:59:36;;;;;;;4.72;3.25;;;6.50;99.90;;;;;;5073724;28;20608;-23
2023/10/20 08:02:05;;;;;;;5.60;3.25;;;6.50;99.90;;;;;;5073856;28;20182;-23
2023/10/20 08:04:32;;;;;;;5.43;3.55;;;6.40;99.90;;;;;;5073573;28;20056;-22
2023/10/20 08:06:59;;;;;;;6.15;3.53;;;6.40;99.90;;;;;;5073273;28;20145;-23
2023/10/20 08:09:27;;;;;;;7.63;3.58;;;6.40;99.90;;;;;;5073241;28;20421;-23
2023/10/20 08:11:54;;;;;;;6.47;4.18;;;6.40;99.90;;;;;;5073382;28;20041;-23
2023/10/20 08:14:20;;;;;;;6.65;3.72;;;6.40;99.90;;;;;;5073775;28;20071;-23
2023/10/20 08:16:50;;;;;;;6.78;3.80;;;6.30;99.90;;;;;;5081113;28;20486;-23
2023/10/20 08:19:16;;;;;;;7.97;4.28;;;6.30;99.90;;;;;;5078226;28;20051;-23
2023/10/20 08:21:43;;;;;;;6.55;3.60;;;6.40;99.90;;;;;;5073473;28;20127;-23
2023/10/20 08:24:10;;;;;;;6.03;3.95;;;6.30;99.90;;;;;;5072854;28;20127;-23
2023/10/20 08:26:36;;;;;;;6.18;3.70;;;6.30;99.90;;;;;;5073794;28;20462;-23
2023/10/20 08:29:06;;;;;;;8.15;3.67;;;6.30;99.90;;;;;;5073726;28;20056;-23
2023/10/20 08:31:32;;;;;;;6.60;3.38;;;6.30;99.90;;;;;;5072023;28;20428;-23
2023/10/20 08:34:00;;;;;;;7.47;4.25;;;6.30;99.90;;;;;;5073099;28;20136;-23
2023/10/20 08:36:26;;;;;;;6.80;3.70;;;6.30;99.90;;;;;;5071862;28;20049;-23
2023/10/20 08:38:52;;;;;;;6.90;3.22;;;6.30;99.90;;;;;;5073155;28;20056;-23
2023/10/20 08:41:20;;;;;;;4.45;2.75;;;6.30;99.90;;;;;;5071767;28;20143;-23
2023/10/20 08:43:46;;;;;;;4.68;2.70;;;6.30;99.90;;;;;;5073076;28;20048;-23
2023/10/20 08:46:14;;;;;;;6.38;2.92;;;6.30;99.90;;;;;;5073147;28;20049;-32
2023/10/20 08:48:41;;;;;;;5.50;2.80;;;6.30;99.90;;;;;;5074647;28;20056;-23
2023/10/20 08:51:10;;;;;;;4.28;2.50;;;6.20;99.90;;;;;;5076659;28;20398;-23
2023/10/20 08:53:37;;;;;;;3.95;2.33;;;6.20;99.90;;;;;;5077425;28;20055;-22
2023/10/20 08:56:10;;;;;;;4.15;2.30;;;6.20;99.90;;;;;;5076268;28;20518;-22
2023/10/20 08:58:36;;;;;;;5.35;2.25;;;6.10;99.90;;;;;;5076472;28;20055;-23
2023/10/20 09:01:04;;;;;;;4.05;2.20;;;6.30;99.90;;;;;;5075976;28;20044;-22
2023/10/20 09:03:51;;;;;;;5.78;2.10;;;6.30;99.90;;;;;;5075038;28;20064;-22
2023/10/20 09:06:17;;;;;;;4.85;2.50;;;6.10;99.90;;;;;;5076413;28;20098;-21
2023/10/20 09:08:47;;;;;;;5.18;2.85;;;6.10;99.90;;;;;;5076883;28;20044;-21
2023/10/20 09:11:13;;;;;;;6.45;3.05;;;6.10;99.90;;;;;;5075134;28;20076;-22
2023/10/20 09:13:43;;;;;;;4.93;2.58;;;6.20;99.90;;;;;;5076237;28;20056;-22
2023/10/20 09:16:11;;;;;;;4.32;2.15;;;6.30;99.90;;;;;;5075581;28;20052;-22
2023/10/20 09:18:47;;;;;;;4.38;1.90;;;6.00;99.90;;;;;;5076153;28;20123;-22
2023/10/20 09:21:14;;;;;;;6.63;2.70;;;6.20;99.90;;;;;;5076039;28;20114;-23
2023/10/20 09:23:40;;;;;;;4.60;2.53;;;6.00;99.90;;;;;;5076082;28;20119;-22
2023/10/20 09:26:07;;;;;;;4.50;1.98;;;6.40;99.90;;;;;;5076065;28;20048;-22
2023/10/20 09:28:33;;;;;;;2.85;1.73;;;6.50;99.90;;;;;;5075976;28;20055;-22
2023/10/20 09:30:59;;;;;;;3.65;2.00;;;6.10;99.90;;;;;;5075917;28;20569;-22
2023/10/20 09:33:25;;;;;;;5.35;2.10;;;6.00;99.90;;;;;;5076447;28;20070;-22
2023/10/20 09:35:54;;;;;;;3.88;2.03;;;6.40;99.90;;;;;;5075807;28;20051;-24
2023/10/20 09:38:25;;;;;;;3.75;1.80;;;6.20;99.90;;;;;;5075773;28;20055;-23
2023/10/20 09:40:59;;;;;;;4.53;2.05;;;6.00;99.90;;;;;;5075828;28;20055;-24
2023/10/20 09:43:30;;;;;;;3.28;1.95;;;5.90;99.90;;;;;;5075727;28;20040;-24
2023/10/20 09:46:41;;;;;;;3.20;1.60;;;6.20;99.90;;;;;;5076037;28;20059;-24
2023/10/20 09:49:14;;;;;;;5.18;1.98;;;6.20;99.90;;;;;;5065511;28;20056;-25
2023/10/20 09:51:45;;;;;;;4.55;2.20;;;6.00;99.90;;;;;;5076168;28;20479;-24
2023/10/20 09:54:13;;;;;;;4.32;2.20;;;6.10;99.90;;;;;;5075467;28;20078;-25
2023/10/20 09:56:41;;;;;;;3.45;1.58;;;6.20;99.90;;;;;;5075470;28;20088;-25
2023/10/20 09:59:09;;;;;;;4.25;1.60;;;6.20;99.90;;;;;;5075264;28;20510;-25
2023/10/20 10:01:37;;;;;;;4.22;1.70;;;6.30;99.90;;;;;;5075307;28;20390;-24
2023/10/20 10:04:04;;;;;;;4.00;1.63;;;6.20;99.90;;;;;;5074496;28;20056;-24
2023/10/20 10:06:37;;;;;;;3.30;1.73;;;6.00;99.90;;;;;;5075334;28;20040;-24
2023/10/20 10:09:05;;;;;;;4.22;1.50;;;6.20;99.90;;;;;;5075242;28;20086;-24
2023/10/20 10:11:42;;;;;;;3.28;1.60;;;5.90;99.90;;;;;;5075211;28;20075;-24
2023/10/20 10:14:17;;;;;;;2.17;1.27;;;6.20;99.90;;;;;;5075160;28;20036;-24
2023/10/20 10:16:56;;;;;;;4.22;1.30;;;6.00;99.90;;;;;;5075075;28;20182;-24
2023/10/20 10:19:26;;;;;;;3.67;2.05;;;6.10;99.90;;;;;;5075785;28;20044;-25
2023/10/20 10:22:00;;;;;;;3.08;1.30;;;5.90;99.90;;;;;;5075708;28;20110;-24
2023/10/20 10:24:29;;;;;;;1.88;1.10;;;6.00;99.90;;;;;;5074945;28;20053;-24
2023/10/20 10:27:06;;;;;;;4.40;1.40;;;6.00;99.90;;;;;;5074819;28;20051;-24
2023/10/20 10:30:13;;;;;;;2.45;1.40;;;5.90;99.90;;;;;;5074872;28;20048;-24
2023/10/20 10:32:52;;;;;;;2.72;1.20;;;5.80;99.90;;;;;;5072309;28;20060;-24
2023/10/20 10:35:17;;;;;;;2.38;1.30;;;6.10;99.90;;;;;;5075567;28;20395;-24
2023/10/20 10:37:44;;;;;;;2.80;1.35;;;5.80;99.90;;;;;;5073939;28;20040;-24
2023/10/20 10:40:12;;;;;;;2.67;1.17;;;6.10;99.90;;;;;;5073401;28;20071;-24
2023/10/20 10:42:45;;;;;;;2.35;1.40;;;5.80;99.90;;;;;;5075286;28;20097;-24
2023/10/20 10:45:18;;;;;;;;;;;5.80;99.90;;;;;;5074903;28;20045;-24
2023/10/20 10:47:45;;;;;;;1.90;1.00;;;5.80;99.90;;;;;;5074450;28;19921;-24
2023/10/20 10:50:11;;;;;;;3.25;1.13;;;5.80;99.90;;;;;;5074395;28;20050;-24
2023/10/20 10:52:37;;;;;;;2.90;1.80;;;5.90;99.90;;;;;;5075177;28;20040;-24
2023/10/20 10:55:04;;;;;;;3.10;1.17;;;5.70;99.90;;;;;;5073103;28;20390;-23
2023/10/20 10:57:31;;;;;;;2.15;0.95;;;6.10;99.90;;;;;;5075050;28;20131;-23
2023/10/20 10:59:57;;;;;;;2.67;1.13;;;5.60;99.90;;;;;;5074271;28;20045;-24
2023/10/20 11:02:23;;;;;;;3.08;0.82;;;5.80;99.90;;;;;;5074008;28;20048;-23
2023/10/20 11:04:49;;;;;;;3.65;1.15;;;6.00;99.90;;;;;;5072685;28;20611;-22
2023/10/20 11:07:15;;;;;;;2.30;1.05;;;6.10;99.90;;;;;;5072981;28;20045;-22
2023/10/20 11:09:41;;;;;;;5.85;1.23;;;6.10;99.90;;;;;;5074333;28;20048;-22
2023/10/20 11:12:10;;;;;;;2.95;1.00;;;5.70;99.90;;;;;;5073737;28;20084;-21
2023/10/20 11:14:39;;;;;;;2.50;1.10;;;5.70;99.90;;;;;;5073981;28;20164;-22
2023/10/20 11:17:05;;;;;;;1.70;1.00;;;6.00;99.90;;;;;;5072959;28;20542;-21
2023/10/20 11:19:31;;;;;;;1.92;1.05;;;5.80;99.90;;;;;;5072775;28;20048;-20
2023/10/20 11:21:58;;;;;;;2.70;1.10;;;5.90;99.90;;;;;;5073820;28;20044;-21
2023/10/20 11:24:28;;;;;;;2.85;0.90;;;6.10;99.90;;;;;;5074120;28;20044;-21
2023/10/20 11:27:01;;;;;;;1.60;0.73;;;6.00;99.90;;;;;;5074009;28;20045;-21
2023/10/20 11:29:31;;;;;;;2.92;0.93;;;6.20;99.90;;;;;;5072586;28;20481;-20
2023/10/20 11:32:05;;;;;;;2.25;0.93;;;5.60;99.90;;;;;;5073743;28;20123;-21
2023/10/20 11:34:32;;;;;;;1.27;0.90;;;5.60;99.90;;;;;;5074097;28;20075;-21
2023/10/20 11:36:59;;;;;;;1.10;0.77;;;5.70;99.90;;;;;;5073710;28;20163;-21
2023/10/20 11:39:27;;;;;;;3.17;0.82;;;5.90;99.90;;;;;;5074215;28;20048;-21
2023/10/20 11:41:56;;;;;;;1.95;1.08;;;5.90;99.90;;;;;;5073342;28;20486;-21
2023/10/20 11:44:24;;;;;;;3.40;1.30;;;5.60;99.90;;;;;;5073610;28;20044;-22
2023/10/20 11:46:54;;;;;;;2.28;0.90;;;5.60;99.90;;;;;;5073633;28;20056;-21
2023/10/20 11:49:26;;;;;;;0.77;0.50;;;5.90;99.90;;;;;;5073665;28;20106;-21
2023/10/20 11:51:52;;;;;;;1.73;0.82;;;5.90;99.90;;;;;;5073606;28;20088;-21
2023/10/20 11:54:18;;;;;;;0.90;0.65;;;5.80;99.90;;;;;;5073843;28;20048;-21
2023/10/20 11:56:44;;;;;;;2.35;0.90;;;5.80;99.90;;;;;;5073518;28;20317;-22
2023/10/20 11:59:11;;;;;;;2.65;0.82;;;5.90;99.90;;;;;;5073503;28;20048;-21
2023/10/20 12:01:37;;;;;;;2.40;1.00;;;6.10;99.90;;;;;;5073405;28;20544;-21
2023/10/20 12:04:08;;;;;;;4.07;1.02;;;5.80;99.90;;;;;;5073398;28;20131;-21
2023/10/20 12:06:37;;;;;;;2.25;1.02;;;6.00;99.90;;;;;;5074063;28;20068;-20
2023/10/20 12:09:08;;;;;;;2.88;1.02;;;5.90;99.90;;;;;;5073960;28;20084;-21
2023/10/20 12:11:35;;;;;;;3.30;1.10;;;5.80;99.90;;;;;;5074068;28;20123;-21
2023/10/20 12:14:01;;;;;;;4.68;1.52;;;5.70;99.90;;;;;;5074168;28;20080;-21
2023/10/20 12:16:27;;;;;;;3.17;1.20;;;5.70;99.90;;;;;;5073206;28;20476;-21
2023/10/20 12:18:53;;;;;;;2.15;0.90;;;6.10;99.90;;;;;;5073343;28;20052;-21
2023/10/20 12:21:19;;;;;;;2.15;0.80;;;5.70;99.90;;;;;;5073032;28;20053;-21
2023/10/20 12:23:45;;;;;;;3.35;1.45;;;5.80;99.90;;;;;;5077005;28;20102;-20
2023/10/20 12:26:11;;;;;;;3.03;1.00;;;5.70;99.90;;;;;;5077167;28;20444;-21
2023/10/20 12:28:37;;;;;;;2.88;0.90;;;6.20;99.90;;;;;;5077143;28;20040;-20
2023/10/20 12:31:03;;;;;;;2.33;1.20;;;6.10;99.90;;;;;;5059102;28;20398;-20
2023/10/20 12:33:29;;;;;;;1.90;0.80;;;6.20;99.90;;;;;;5077809;28;20048;-21
2023/10/20 12:35:55;;;;;;;2.92;1.10;;;5.80;99.90;;;;;;5077258;28;20040;-21
2023/10/20 12:38:22;;;;;;;3.47;1.10;;;6.30;99.90;;;;;;5077202;28;20044;-20
2023/10/20 12:40:51;;;;;;;1.85;0.95;;;5.70;99.90;;;;;;5075758;28;20048;-20
2023/10/20 12:43:17;;;;;;;1.92;1.00;;;6.30;99.90;;;;;;5076710;28;20052;-20
2023/10/20 12:45:43;;;;;;;1.92;0.70;;;5.90;99.90;;;;;;5076403;28;20386;-21
2023/10/20 12:48:09;;;;;;;1.58;0.80;;;5.80;99.90;;;;;;5076745;28;20044;-21
2023/10/20 12:50:36;;;;;;;2.08;1.00;;;5.80;99.90;;;;;;5075493;28;20048;-21
2023/10/20 12:53:03;;;;;;;3.10;1.10;;;6.00;99.90;;;;;;5059157;28;20074;-21
2023/10/20 12:55:30;;;;;;;2.05;1.10;;;5.80;99.90;;;;;;5075376;28;20048;-21
2023/10/20 12:57:56;;;;;;;1.50;0.90;;;6.40;99.90;;;;;;5075661;28;20044;-21
2023/10/20 13:00:22;;;;;;;1.15;0.70;;;5.80;99.90;;;;;;5075552;28;20127;-21
2023/10/20 13:02:52;;;;;;;3.05;0.88;;;5.90;99.90;;;;;;5075171;28;20051;-21
2023/10/20 13:05:21;;;;;;;1.50;0.93;;;6.30;99.90;;;;;;5076286;28;20461;-21
2023/10/20 13:07:50;;;;;;;1.65;0.70;;;6.10;99.90;;;;;;5076464;28;20047;-21
2023/10/20 13:10:16;;;;;;;2.60;0.90;;;5.80;99.90;;;;;;5042114;28;20049;-20
2023/10/20 13:12:43;;;;;;;4.03;1.05;;;6.00;99.90;;;;;;5075136;28;20040;-20
2023/10/20 13:15:13;;;;;;;3.08;0.80;;;5.90;99.90;;;;;;5076276;28;20105;-20
2023/10/20 13:17:39;;;;;;;1.10;0.65;;;5.90;99.90;;;;;;5076434;28;20052;-21
2023/10/20 13:20:08;;;;;;;3.22;1.75;;;6.20;99.90;;;;;;5076156;28;20478;-21
2023/10/20 13:22:34;;;;;;;0.82;0.52;;;5.80;99.90;;;;;;5076068;28;20040;-21
2023/10/20 13:25:02;;;;;;;1.58;0.63;;;5.70;99.90;;;;;;5076047;28;20044;-21
2023/10/20 13:27:28;;;;;;;1.40;0.50;;;5.80;99.90;;;;;;5075650;28;20094;-21